Colorado Springs Aviation Decision Support Information(Rapid Prototype)

Last Page Refresh(page does not auto refresh):
000
FTUS45 KPUB 231120
TAFCOS
TAF
KCOS 231120Z 2312/2412 36006KT P6SM SKC
     FM231700 16010KT P6SM FEW100 SCT200
     FM232000 19012G22KT P6SM VCTS SCT100CB SCT200
     FM240400 VRB05KT P6SM SCT100 SCT250=

Please provide any comments or suggestion to the web master email addresse below.


USA.gov is the U.S. government's official web portal to all federal, state and local government web resources and services.